createdAt,value
2023-04-28T00:02:08.819Z,2.83
2023-04-28T00:04:38.646Z,2.97
2023-04-28T00:07:08.462Z,3.00
2023-04-28T00:09:38.257Z,2.83
2023-04-28T00:12:10.698Z,2.40
2023-04-28T00:14:40.740Z,2.45
2023-04-28T00:17:10.857Z,2.50
2023-04-28T00:19:40.634Z,2.50
2023-04-28T00:22:10.288Z,2.20
2023-04-28T00:24:41.987Z,2.20
2023-04-28T00:27:14.281Z,2.42
2023-04-28T00:29:43.984Z,2.70
2023-04-28T00:32:14.032Z,2.90
2023-04-28T00:34:43.808Z,3.05
2023-04-28T00:37:13.545Z,2.65
2023-04-28T00:39:47.271Z,2.78
2023-04-28T00:42:19.547Z,3.10
2023-04-28T00:44:49.476Z,2.55
2023-04-28T00:47:21.075Z,2.80
2023-04-28T00:49:52.417Z,2.85
2023-04-28T00:52:22.076Z,2.95
2023-04-28T00:54:52.867Z,3.13
2023-04-28T00:57:25.544Z,3.38
2023-04-28T00:59:55.297Z,2.83
2023-04-28T01:02:25.426Z,3.10
2023-04-28T01:04:56.531Z,3.35
2023-04-28T01:07:26.615Z,3.60
2023-04-28T01:09:56.346Z,3.28
2023-04-28T01:12:33.461Z,3.40
2023-04-28T01:15:03.333Z,3.42
2023-04-28T01:17:34.545Z,3.95
2023-04-28T01:20:04.781Z,3.50
2023-04-28T01:22:34.578Z,3.50
2023-04-28T01:25:07.281Z,3.58
2023-04-28T01:27:37.302Z,3.55
2023-04-28T01:30:08.214Z,3.70
2023-04-28T01:32:37.943Z,3.65
2023-04-28T01:35:09.060Z,3.13
2023-04-28T01:37:39.448Z,3.00
2023-04-28T01:40:12.966Z,2.95
2023-04-28T01:42:42.868Z,3.90
2023-04-28T01:45:13.937Z,3.47
2023-04-28T01:47:44.039Z,3.17
2023-04-28T01:50:14.320Z,3.35
2023-04-28T01:52:43.964Z,3.80
2023-04-28T01:55:16.268Z,3.95
2023-04-28T01:57:46.263Z,3.72
2023-04-28T02:00:17.323Z,4.07
2023-04-28T02:05:21.802Z,3.90
2023-04-28T02:07:53.156Z,3.78
2023-04-28T02:10:25.992Z,3.97
2023-04-28T02:12:55.771Z,3.85
2023-04-28T02:15:25.471Z,4.13
2023-04-28T02:17:56.528Z,3.88
2023-04-28T02:20:26.477Z,3.85
2023-04-28T02:22:57.544Z,4.25
2023-04-28T02:25:31.226Z,3.75
2023-04-28T02:28:00.936Z,3.63
2023-04-28T02:30:30.671Z,4.30
2023-04-28T02:33:00.407Z,3.65
2023-04-28T02:35:30.159Z,4.38
2023-04-28T02:37:59.879Z,3.35
2023-04-28T02:40:32.221Z,4.03
2023-04-28T02:43:02.354Z,3.65
2023-04-28T02:45:32.382Z,3.67
2023-04-28T02:48:03.821Z,3.50
2023-04-28T02:50:33.849Z,3.72
2023-04-28T02:53:03.600Z,4.07
2023-04-28T02:55:35.867Z,4.43
2023-04-28T02:58:05.550Z,3.70
2023-04-28T03:00:35.511Z,3.78
2023-04-28T03:03:05.425Z,3.58
2023-04-28T03:05:35.295Z,3.65
2023-04-28T03:08:05.070Z,3.63
2023-04-28T03:10:37.306Z,4.25
2023-04-28T03:13:07.960Z,3.40
2023-04-28T03:15:37.928Z,3.95
2023-04-28T03:18:07.789Z,3.55
2023-04-28T03:20:37.780Z,3.63
2023-04-28T03:23:07.671Z,3.97
2023-04-28T03:25:40.563Z,3.78
2023-04-28T03:28:10.922Z,4.80
2023-04-28T03:30:40.706Z,4.00
2023-04-28T03:33:12.974Z,4.45
2023-04-28T03:35:43.406Z,4.55
2023-04-28T03:38:13.267Z,4.43
2023-04-28T03:40:46.453Z,4.50
2023-04-28T03:43:42.052Z,4.55
2023-04-28T03:48:48.407Z,4.20
2023-04-28T03:51:18.167Z,4.15
2023-04-28T03:53:48.248Z,4.25
2023-04-28T03:56:20.897Z,4.10
2023-04-28T03:58:50.658Z,5.85
2023-04-28T04:01:20.585Z,4.70
2023-04-28T04:03:51.625Z,4.47
2023-04-28T04:06:21.834Z,5.50
2023-04-28T04:08:51.959Z,5.25
2023-04-28T04:11:24.264Z,4.95
2023-04-28T04:13:54.285Z,5.00
2023-04-28T04:16:27.054Z,5.22
2023-04-28T04:18:58.938Z,5.22
2023-04-28T04:21:37.708Z,5.13
2023-04-28T04:24:08.140Z,4.90
2023-04-28T04:26:40.584Z,5.15
2023-04-28T04:29:27.054Z,4.78
2023-04-28T04:31:57.102Z,5.00
2023-04-28T04:34:26.953Z,5.30
2023-04-28T04:36:56.789Z,5.03
2023-04-28T04:39:27.146Z,4.78
2023-04-28T04:42:00.744Z,5.10
2023-04-28T04:44:43.290Z,4.50
2023-04-28T04:47:20.447Z,5.47
2023-04-28T04:49:50.923Z,4.50
2023-04-28T04:52:21.685Z,4.18
2023-04-28T04:54:51.536Z,4.28
2023-04-28T04:57:24.396Z,4.32
2023-04-28T05:00:23.775Z,4.45
2023-04-28T05:02:55.462Z,4.00
2023-04-28T05:05:25.599Z,4.32
2023-04-28T05:08:18.716Z,4.15
2023-04-28T05:10:48.661Z,4.93
2023-04-28T05:13:21.272Z,4.78
2023-04-28T05:15:55.192Z,5.03
2023-04-28T05:18:33.267Z,4.35
2023-04-28T05:21:03.112Z,4.40
2023-04-28T05:23:32.911Z,4.57
2023-04-28T05:26:04.210Z,4.60
2023-04-28T05:28:37.047Z,4.35
2023-04-28T05:31:07.408Z,4.35
2023-04-28T05:33:37.460Z,5.18
2023-04-28T05:36:08.658Z,5.40
2023-04-28T05:38:39.268Z,5.10
2023-04-28T05:41:09.296Z,4.68
2023-04-28T05:43:41.603Z,4.72
2023-04-28T05:46:28.272Z,4.65
2023-04-28T05:49:00.870Z,4.60
2023-04-28T05:51:35.809Z,4.20
2023-04-28T05:54:05.948Z,5.00
2023-04-28T05:56:41.024Z,4.97
2023-04-28T05:59:14.770Z,5.13
2023-04-28T06:01:44.724Z,5.28
2023-04-28T06:04:14.841Z,5.80
2023-04-28T06:06:44.985Z,5.25
2023-04-28T06:09:14.937Z,5.28
2023-04-28T06:11:44.855Z,5.75
2023-04-28T06:14:17.381Z,5.75
2023-04-28T06:16:47.373Z,5.68
2023-04-28T06:19:19.043Z,5.45
2023-04-28T06:21:50.526Z,4.95
2023-04-28T06:24:20.237Z,5.28
2023-04-28T06:26:50.753Z,5.30
2023-04-28T06:29:24.185Z,5.78
2023-04-28T06:31:57.813Z,5.28
2023-04-28T06:34:31.094Z,6.00
2023-04-28T06:37:01.760Z,5.38
2023-04-28T06:39:31.900Z,5.57
2023-04-28T06:42:02.425Z,5.95
2023-04-28T06:44:36.523Z,5.65
2023-04-28T06:47:06.929Z,5.93
2023-04-28T06:49:36.743Z,6.18
2023-04-28T06:52:08.017Z,6.05
2023-04-28T06:54:38.714Z,6.07
2023-04-28T06:57:11.595Z,6.15
2023-04-28T06:59:44.277Z,5.85
2023-04-28T07:02:14.291Z,7.65
2023-04-28T07:04:43.966Z,6.95
2023-04-28T07:07:14.224Z,6.25
2023-04-28T07:09:44.784Z,6.60
2023-04-28T07:12:14.526Z,7.60
2023-04-28T07:14:47.166Z,6.07
2023-04-28T07:17:17.389Z,6.18
2023-04-28T07:19:47.123Z,5.93
2023-04-28T07:22:16.780Z,6.85
2023-04-28T07:24:46.513Z,6.57
2023-04-28T07:27:16.314Z,6.60
2023-04-28T07:29:48.697Z,6.60
2023-04-28T07:32:18.684Z,6.85
2023-04-28T07:34:48.361Z,6.93
2023-04-28T07:37:18.090Z,7.47
2023-04-28T07:39:48.020Z,6.70
2023-04-28T07:42:19.207Z,6.82
2023-04-28T07:44:51.971Z,6.90
2023-04-28T07:47:21.728Z,6.93
2023-04-28T07:49:51.362Z,7.18
2023-04-28T07:52:21.343Z,6.65
2023-04-28T07:54:51.288Z,7.13
2023-04-28T07:57:21.036Z,6.85
2023-04-28T07:59:53.643Z,6.88
2023-04-28T08:02:23.576Z,7.22
2023-04-28T08:04:53.520Z,6.53
2023-04-28T08:07:24.746Z,7.20
2023-04-28T08:09:55.480Z,6.75
2023-04-28T08:12:25.404Z,6.70
2023-04-28T08:14:57.944Z,7.20
2023-04-28T08:17:27.753Z,7.07
2023-04-28T08:19:57.446Z,6.80
2023-04-28T08:22:27.378Z,6.93
2023-04-28T08:24:57.072Z,7.10
2023-04-28T08:27:27.284Z,7.18
2023-04-28T08:29:59.684Z,7.07
2023-04-28T08:32:29.599Z,6.18
2023-04-28T08:35:00.454Z,6.88
2023-04-28T08:37:31.258Z,6.63
2023-04-28T08:40:04.874Z,7.00
2023-04-28T08:42:34.828Z,7.15
2023-04-28T08:45:08.235Z,6.45
2023-04-28T08:47:40.829Z,7.30
2023-04-28T08:50:12.732Z,7.43
2023-04-28T08:52:43.939Z,7.63
2023-04-28T08:55:17.148Z,7.50
2023-04-28T08:57:48.606Z,7.57
2023-04-28T09:00:21.543Z,6.88
2023-04-28T09:02:51.382Z,7.50
2023-04-28T09:05:21.388Z,6.72
2023-04-28T09:07:52.364Z,7.05
2023-04-28T09:10:24.108Z,7.22
2023-04-28T09:12:56.052Z,7.00
2023-04-28T09:15:34.557Z,6.80
2023-04-28T09:18:06.495Z,7.18
2023-04-28T09:20:37.478Z,6.93
2023-04-28T09:23:17.982Z,6.60
2023-04-28T09:26:03.631Z,6.75
2023-04-28T09:28:34.065Z,7.18
2023-04-28T09:31:06.769Z,7.43
2023-04-28T09:33:36.528Z,7.25
2023-04-28T09:36:06.664Z,7.63
2023-04-28T09:38:46.790Z,7.25
2023-04-28T09:41:16.751Z,7.20
2023-04-28T09:43:46.460Z,6.93
2023-04-28T09:46:31.986Z,7.45
2023-04-28T09:49:04.666Z,7.55
2023-04-28T09:51:34.792Z,6.88
2023-04-28T09:54:05.439Z,7.65
2023-04-28T09:56:41.188Z,7.32
2023-04-28T09:59:11.059Z,8.13
2023-04-28T10:01:44.296Z,7.45
2023-04-28T10:04:14.803Z,8.40
2023-04-28T10:06:45.853Z,8.20
2023-04-28T10:09:16.762Z,7.90
2023-04-28T10:11:47.435Z,8.07
2023-04-28T10:14:17.360Z,8.40
2023-04-28T10:16:52.168Z,8.43
2023-04-28T10:19:22.037Z,9.07
2023-04-28T10:22:07.616Z,8.02
2023-04-28T10:24:56.682Z,7.80
2023-04-28T10:27:33.216Z,9.15
2023-04-28T10:30:27.294Z,8.50
2023-04-28T10:33:28.861Z,8.73
2023-04-28T10:36:01.552Z,8.50
2023-04-28T10:38:31.441Z,8.48
2023-04-28T10:41:03.559Z,9.68
2023-04-28T10:43:39.698Z,8.98
2023-04-28T10:46:11.645Z,8.40
2023-04-28T10:48:58.454Z,9.18
2023-04-28T10:51:35.203Z,8.38
2023-04-28T10:54:12.192Z,9.60
2023-04-28T10:56:42.240Z,8.90
2023-04-28T10:59:30.441Z,8.85
2023-04-28T11:02:51.706Z,9.52
2023-04-28T11:05:23.647Z,8.98
2023-04-28T11:08:35.544Z,8.25
2023-04-28T11:11:21.853Z,8.77
2023-04-28T11:16:24.986Z,7.65
2023-04-28T11:19:03.697Z,9.23
2023-04-28T11:21:34.539Z,9.38
2023-04-28T11:24:11.251Z,8.93
2023-04-28T11:26:44.045Z,9.02
2023-04-28T11:29:15.344Z,9.07
2023-04-28T11:31:52.242Z,9.30
2023-04-28T11:34:23.465Z,9.00
2023-04-28T11:36:54.659Z,9.05
2023-04-28T11:39:29.532Z,8.68
2023-04-28T11:42:03.144Z,9.52
2023-04-28T11:44:34.165Z,9.98
2023-04-28T11:47:06.117Z,9.90
2023-04-28T11:49:45.808Z,10.45
2023-04-28T11:52:16.753Z,9.80
2023-04-28T11:54:46.493Z,9.40
2023-04-28T11:57:25.706Z,9.40
2023-04-28T11:59:55.477Z,9.68
2023-04-28T12:02:30.914Z,9.63
2023-04-28T12:05:09.246Z,10.18
2023-04-28T12:07:44.723Z,9.48
2023-04-28T12:10:16.194Z,9.50
2023-04-28T12:12:52.714Z,11.55
2023-04-28T12:15:25.552Z,9.18
2023-04-28T12:17:55.350Z,9.10
2023-04-28T12:20:39.752Z,10.25
2023-04-28T12:23:09.666Z,9.02
2023-04-28T12:25:48.514Z,8.98
2023-04-28T12:28:20.899Z,9.48
2023-04-28T12:30:51.188Z,8.70
2023-04-28T12:33:27.841Z,8.30
2023-04-28T12:35:59.092Z,9.90
2023-04-28T12:38:29.423Z,9.93
2023-04-28T12:41:00.617Z,10.35
2023-04-28T12:43:33.768Z,10.52
2023-04-28T12:46:04.280Z,11.10
2023-04-28T12:48:35.384Z,10.75
2023-04-28T12:51:05.137Z,10.85
2023-04-28T12:53:34.935Z,10.73
2023-04-28T12:56:04.698Z,11.43
2023-04-28T12:58:37.441Z,10.23
2023-04-28T13:01:07.283Z,9.75
2023-04-28T13:03:39.331Z,10.75
2023-04-28T13:06:10.953Z,10.95
2023-04-28T13:08:40.977Z,11.20
2023-04-28T13:11:21.873Z,11.35
2023-04-28T13:13:57.103Z,10.75
2023-04-28T13:16:29.151Z,11.63
2023-04-28T13:18:59.564Z,12.10
2023-04-28T13:21:29.428Z,11.80
2023-04-28T13:23:59.515Z,11.95
2023-04-28T13:26:29.274Z,12.35
2023-04-28T13:29:02.422Z,12.55
2023-04-28T13:31:32.701Z,12.68
2023-04-28T13:34:04.260Z,11.95
2023-04-28T13:36:35.279Z,13.20
2023-04-28T13:39:06.438Z,12.82
2023-04-28T13:41:37.026Z,12.55
2023-04-28T13:44:09.471Z,11.80
2023-04-28T13:46:39.216Z,12.32
2023-04-28T13:49:09.051Z,12.00
2023-04-28T13:51:39.109Z,11.85
2023-04-28T13:54:10.732Z,11.70
2023-04-28T13:56:40.840Z,12.05
2023-04-28T13:59:13.259Z,13.23
2023-04-28T14:01:43.243Z,13.35
2023-04-28T14:04:13.294Z,12.68
2023-04-28T14:06:43.158Z,12.25
2023-04-28T14:09:12.968Z,13.32
2023-04-28T14:11:42.627Z,13.38
2023-04-28T14:14:14.985Z,13.85
2023-04-28T14:16:46.087Z,14.18
2023-04-28T14:19:17.679Z,13.68
2023-04-28T14:21:48.052Z,14.23
2023-04-28T14:24:18.675Z,12.98
2023-04-28T14:26:49.718Z,14.00
2023-04-28T14:29:21.962Z,12.93
2023-04-28T14:31:51.782Z,13.63
2023-04-28T14:34:21.850Z,14.43
2023-04-28T14:36:51.899Z,13.32
2023-04-28T14:39:22.946Z,13.13
2023-04-28T14:41:52.837Z,12.65
2023-04-28T14:44:25.112Z,12.93
2023-04-28T14:46:54.915Z,13.10
2023-04-28T14:49:24.818Z,12.20
2023-04-28T14:51:54.788Z,15.15
2023-04-28T14:54:24.748Z,12.75
2023-04-28T14:56:54.441Z,12.00
2023-04-28T14:59:27.049Z,10.27
2023-04-28T15:01:56.839Z,10.23
2023-04-28T15:04:31.058Z,10.20
2023-04-28T15:07:01.346Z,10.13
2023-04-28T15:09:31.360Z,11.02
2023-04-28T15:12:01.206Z,9.85
2023-04-28T15:14:33.710Z,11.68
2023-04-28T15:17:04.207Z,8.70
2023-04-28T15:19:35.183Z,9.73
2023-04-28T15:22:05.303Z,9.65
2023-04-28T15:24:35.205Z,9.80
2023-04-28T15:27:05.758Z,9.02
2023-04-28T15:29:38.808Z,9.63
2023-04-28T15:32:09.074Z,8.77
2023-04-28T15:34:39.095Z,9.02
2023-04-28T15:37:33.200Z,8.90
2023-04-28T15:40:03.353Z,9.18
2023-04-28T15:42:35.886Z,8.63
2023-04-28T15:45:10.536Z,8.75
2023-04-28T15:47:41.523Z,9.73
2023-04-28T15:50:12.965Z,14.00
2023-04-28T15:52:46.124Z,12.57
2023-04-28T15:55:17.086Z,10.30
2023-04-28T15:57:47.141Z,10.25
2023-04-28T16:00:19.713Z,11.45
2023-04-28T16:02:49.492Z,11.73
2023-04-28T16:05:19.417Z,11.65
2023-04-28T16:07:50.068Z,11.10
2023-04-28T16:10:19.796Z,12.52
2023-04-28T16:12:49.515Z,12.75
2023-04-28T16:15:21.796Z,13.40
2023-04-28T16:17:52.451Z,13.60
2023-04-28T16:20:22.563Z,13.70
2023-04-28T16:22:52.357Z,13.25
2023-04-28T16:25:22.123Z,13.57
2023-04-28T16:27:51.934Z,13.48
2023-04-28T16:30:24.394Z,12.85
2023-04-28T16:32:54.614Z,13.05
2023-04-28T16:35:24.625Z,13.50
2023-04-28T16:37:54.464Z,12.98
2023-04-28T16:40:24.159Z,13.35
2023-04-28T16:42:54.086Z,13.63
2023-04-28T16:45:26.593Z,12.43
2023-04-28T16:47:56.345Z,12.57
2023-04-28T16:50:26.171Z,13.52
2023-04-28T16:52:55.921Z,12.50
2023-04-28T16:55:26.362Z,13.75
2023-04-28T16:57:56.136Z,12.25
2023-04-28T17:00:28.696Z,14.45
2023-04-28T17:02:58.481Z,16.80
2023-04-28T17:05:28.666Z,13.90
2023-04-28T17:07:58.713Z,12.57
2023-04-28T17:10:28.718Z,13.20
2023-04-28T17:12:58.612Z,13.65
2023-04-28T17:15:31.332Z,18.75
2023-04-28T17:18:02.096Z,19.45
2023-04-28T17:20:31.912Z,13.60
2023-04-28T17:23:01.578Z,16.55
2023-04-28T17:25:31.327Z,13.52
2023-04-28T17:28:03.493Z,13.73
2023-04-28T17:30:37.909Z,12.07
2023-04-28T17:33:08.244Z,11.63
2023-04-28T17:35:39.896Z,11.00
2023-04-28T17:38:09.628Z,11.13
2023-04-28T17:40:39.551Z,11.55
2023-04-28T17:43:09.492Z,11.75
2023-04-28T17:45:41.811Z,12.52
2023-04-28T17:48:12.652Z,12.80
2023-04-28T17:50:42.739Z,13.25
2023-04-28T17:53:12.706Z,12.13
2023-04-28T17:55:43.111Z,12.32
2023-04-28T17:58:13.006Z,14.38
2023-04-28T18:00:45.798Z,15.05
2023-04-28T18:03:15.716Z,14.88
2023-04-28T18:05:45.483Z,14.90
2023-04-28T18:08:15.361Z,14.98
2023-04-28T18:10:45.010Z,16.40
2023-04-28T18:13:14.797Z,15.05
2023-04-28T18:15:47.960Z,14.55
2023-04-28T18:18:17.621Z,13.63
2023-04-28T18:20:47.714Z,13.80
2023-04-28T18:23:17.382Z,15.18
2023-04-28T18:25:47.082Z,13.95
2023-04-28T18:28:16.796Z,14.15
2023-04-28T18:30:46.349Z,15.77
2023-04-28T18:33:19.447Z,15.48
2023-04-28T18:35:51.045Z,14.45
2023-04-28T18:38:20.696Z,19.60
2023-04-28T18:40:50.365Z,17.52
2023-04-28T18:43:20.118Z,15.90
2023-04-28T18:45:53.044Z,15.98
2023-04-28T18:48:23.091Z,14.90
2023-04-28T18:50:54.013Z,15.93
2023-04-28T18:53:23.739Z,15.70
2023-04-28T18:55:58.109Z,20.85
2023-04-28T18:58:27.990Z,15.82
2023-04-28T19:01:00.366Z,24.40
2023-04-28T19:03:31.763Z,16.20
2023-04-28T19:06:01.644Z,15.93
2023-04-28T19:08:32.191Z,17.50
2023-04-28T19:11:02.218Z,15.95
2023-04-28T19:13:31.960Z,16.52
2023-04-28T19:16:04.395Z,20.25
2023-04-28T19:18:34.810Z,25.63
2023-04-28T19:21:05.594Z,15.95
2023-04-28T19:23:35.522Z,18.77
2023-04-28T19:26:05.263Z,21.38
2023-04-28T19:28:35.008Z,17.98
2023-04-28T19:31:07.284Z,18.10
2023-04-28T19:33:37.047Z,17.45
2023-04-28T19:36:09.923Z,17.75
2023-04-28T19:38:40.453Z,19.33
2023-04-28T19:41:10.325Z,17.67
2023-04-28T19:43:40.069Z,17.75
2023-04-28T19:46:13.221Z,16.50
2023-04-28T19:48:44.596Z,17.55
2023-04-28T19:51:14.567Z,16.65
2023-04-28T19:53:46.558Z,16.30
2023-04-28T19:56:16.283Z,17.15
2023-04-28T19:58:45.993Z,16.15
2023-04-28T20:01:18.857Z,17.85
2023-04-28T20:03:48.808Z,21.83
2023-04-28T20:06:19.364Z,17.42
2023-04-28T20:08:49.342Z,15.43
2023-04-28T20:11:19.768Z,14.90
2023-04-28T20:13:49.592Z,14.30
2023-04-28T20:16:22.699Z,19.75
2023-04-28T20:18:52.478Z,19.88
2023-04-28T20:21:23.123Z,17.33
2023-04-28T20:23:53.118Z,16.85
2023-04-28T20:26:23.614Z,13.85
2023-04-28T20:28:54.304Z,15.10
2023-04-28T20:31:26.747Z,16.88
2023-04-28T20:33:56.647Z,15.93
2023-04-28T20:36:27.521Z,14.77
2023-04-28T20:38:57.317Z,15.75
2023-04-28T20:41:26.985Z,18.25
2023-04-28T20:43:56.759Z,17.42
2023-04-28T20:46:29.024Z,17.35
2023-04-28T20:48:59.684Z,16.83
2023-04-28T20:51:30.005Z,15.57
2023-04-28T20:54:00.160Z,15.63
2023-04-28T20:56:30.050Z,19.00
2023-04-28T20:58:59.803Z,22.35
2023-04-28T21:01:32.219Z,17.15
2023-04-28T21:04:02.260Z,16.08
2023-04-28T21:06:32.062Z,16.15
2023-04-28T21:09:01.782Z,14.85
2023-04-28T21:11:31.457Z,17.65
2023-04-28T21:14:01.381Z,15.38
2023-04-28T21:16:33.681Z,15.30
2023-04-28T21:19:03.554Z,16.42
2023-04-28T21:21:33.971Z,14.68
2023-04-28T21:24:03.632Z,16.67
2023-04-28T21:26:33.291Z,15.70
2023-04-28T21:29:03.018Z,14.95
2023-04-28T21:31:35.349Z,14.82
2023-04-28T21:34:05.361Z,15.05
2023-04-28T21:36:35.314Z,16.08
2023-04-28T21:39:06.292Z,15.60
2023-04-28T21:41:36.457Z,16.88
2023-04-28T21:44:06.203Z,19.60
2023-04-28T21:46:39.279Z,18.33
2023-04-28T21:49:08.939Z,30.58
2023-04-28T21:51:42.276Z,19.77
2023-04-28T21:54:12.536Z,19.45
2023-04-28T21:56:42.203Z,16.38
2023-04-28T21:59:11.930Z,14.55
2023-04-28T22:01:44.498Z,15.48
2023-04-28T22:04:15.347Z,13.93
2023-04-28T22:06:45.384Z,13.00
2023-04-28T22:09:15.574Z,13.50
2023-04-28T22:11:45.380Z,16.35
2023-04-28T22:14:30.531Z,14.52
2023-04-28T22:17:07.362Z,14.43
2023-04-28T22:19:37.015Z,13.50
2023-04-28T22:22:07.127Z,11.55
2023-04-28T22:24:37.263Z,11.77
2023-04-28T22:27:07.203Z,11.57
2023-04-28T22:29:36.990Z,11.50
2023-04-28T22:32:10.105Z,11.50
2023-04-28T22:34:40.108Z,12.50
2023-04-28T22:37:10.640Z,11.88
2023-04-28T22:39:40.289Z,12.95
2023-04-28T22:42:10.200Z,12.13
2023-04-28T22:44:40.090Z,12.10
2023-04-28T22:47:12.430Z,12.00
2023-04-28T22:49:42.736Z,12.18
2023-04-28T22:52:12.548Z,11.63
2023-04-28T22:54:42.216Z,10.77
2023-04-28T22:57:11.869Z,10.02
2023-04-28T22:59:42.128Z,8.93
2023-04-28T23:02:14.710Z,8.25
2023-04-28T23:04:44.554Z,7.13
2023-04-28T23:07:14.425Z,7.03
2023-04-28T23:09:44.091Z,6.20
2023-04-28T23:12:13.782Z,5.43
2023-04-28T23:14:43.471Z,5.90
2023-04-28T23:17:15.677Z,5.72
2023-04-28T23:19:45.322Z,5.55
2023-04-28T23:22:15.061Z,5.75
2023-04-28T23:24:47.194Z,5.68
2023-04-28T23:27:16.855Z,5.50
2023-04-28T23:29:46.490Z,5.30
2023-04-28T23:32:18.762Z,6.00
2023-04-28T23:34:48.970Z,6.03
2023-04-28T23:37:18.604Z,5.65
2023-04-28T23:39:48.262Z,6.05
2023-04-28T23:42:18.105Z,5.85
2023-04-28T23:44:47.776Z,6.65
2023-04-28T23:47:20.070Z,5.82
2023-04-28T23:49:50.096Z,6.10
2023-04-28T23:52:20.047Z,6.35
2023-04-28T23:54:49.792Z,5.50
2023-04-28T23:57:19.486Z,5.50
2023-04-28T23:59:49.248Z,5.97
